Equinox Dawn — ZCGK6 — position and weather

sailwx.info

Track history (hours):
 
Tides and Currents Weather Stations Pressure Air Temp Water Temp Dewpoint Dewpoint Depression Visibility Wind Speed Wind Dir Waves Ship Positions

Equinox Dawn

Last reported at 2018-Apr-19 04:07 UTC. Time now 2018-Apr-23 07:44 UTC.
Position N 38°27' E 121°17'.

Length 190 m; draft 12.5 m.

Type: Cargo ship. MMSI: 319677000.

Date/timePositionNaut miles runAvg speedWind from/ knotsBaromVisibWave heightAir tempDewpointWater temp
2018-Apr-19 04:07N 38°27' E 121°17'513.6
2018-Apr-19 03:47N 38°25' E 121°22'413.2
2018-Apr-19 03:28N 38°24' E 121°27'713.1
2018-Apr-19 02:58N 38°22' E 121°35'612.9
2018-Apr-19 02:28N 38°20' E 121°43'612.6
2018-Apr-19 02:00N 38°18' E 121°50'812.4
2018-Apr-19 01:23N 38°16' E 121°60'31811.3
2018-Apr-17 21:10N 33°11' E 123°48'211.7
2018-Apr-17 20:59N 33°09' E 123°48'811.7
2018-Apr-17 20:18N 33°00' E 123°48'6313.0
2018-Apr-17 15:27N 31°57' E 123°49'1513.8
2018-Apr-17 14:20N 31°42' E 123°51'513.4
2018-Apr-17 14:00N 31°37' E 123°51'713.0
2018-Apr-17 13:25N 31°30' E 123°51'612.8
2018-Apr-17 12:55N 31°24' E 123°52'  
2018-Apr-09 14:37N 01°15' E 104°05'1 9.4
2018-Apr-09 14:28N 01°15' E 104°04'4 7.4
2018-Apr-09 13:58N 01°17' E 104°00'1 1.4
2018-Apr-09 12:55N 01°17' E 103°59'0 0.1
2018-Apr-09 12:29N 01°17' E 103°59'0 0.0
2018-Apr-09 11:59N 01°17' E 103°59'0 0.0
2018-Apr-09 10:04N 01°17' E 103°59'0 0.0
2018-Apr-09 09:52N 01°17' E 103°59'0 0.0
2018-Apr-09 09:19N 01°17' E 103°59'0 0.0
2018-Apr-09 08:58N 01°17' E 103°59'0 0.0
2018-Apr-09 08:29N 01°17' E 103°59'0 0.0
2018-Apr-09 07:46N 01°17' E 103°59'0 0.0
2018-Apr-09 07:25N 01°17' E 103°59'0 0.0
2018-Apr-09 06:49N 01°17' E 103°59'0 0.0
2018-Apr-09 05:58N 01°17' E 103°59'0 0.1
2018-Apr-09 05:26N 01°17' E 103°59'  
Track history (hours):
 
Tides and Currents Weather Stations Pressure Air Temp Water Temp Dewpoint Dewpoint Depression Visibility Wind Speed Wind Dir Waves Ship Positions

Equinox Dawn

Last reported at 2018-Apr-19 04:07 UTC. Time now 2018-Apr-23 07:44 UTC.
Position N 38°27' E 121°17'.

Length 190 m; draft 12.5 m.

Type: Cargo ship. MMSI: 319677000.

Date/timePositionNaut miles runAvg speedWind from/ knotsBaromVisibWave heightAir tempDewpointWater temp
2018-Apr-19 04:07N 38°27' E 121°17'513.6
2018-Apr-19 03:47N 38°25' E 121°22'413.2
2018-Apr-19 03:28N 38°24' E 121°27'713.1
2018-Apr-19 02:58N 38°22' E 121°35'612.9
2018-Apr-19 02:28N 38°20' E 121°43'612.6
2018-Apr-19 02:00N 38°18' E 121°50'812.4
2018-Apr-19 01:23N 38°16' E 121°60'31811.3
2018-Apr-17 21:10N 33°11' E 123°48'211.7
2018-Apr-17 20:59N 33°09' E 123°48'811.7
2018-Apr-17 20:18N 33°00' E 123°48'6313.0
2018-Apr-17 15:27N 31°57' E 123°49'1513.8
2018-Apr-17 14:20N 31°42' E 123°51'513.4
2018-Apr-17 14:00N 31°37' E 123°51'713.0
2018-Apr-17 13:25N 31°30' E 123°51'612.8
2018-Apr-17 12:55N 31°24' E 123°52'  
2018-Apr-09 14:37N 01°15' E 104°05'1 9.4
2018-Apr-09 14:28N 01°15' E 104°04'4 7.4
2018-Apr-09 13:58N 01°17' E 104°00'1 1.4
2018-Apr-09 12:55N 01°17' E 103°59'0 0.1
2018-Apr-09 12:29N 01°17' E 103°59'0 0.0
2018-Apr-09 11:59N 01°17' E 103°59'0 0.0
2018-Apr-09 10:04N 01°17' E 103°59'0 0.0
2018-Apr-09 09:52N 01°17' E 103°59'0 0.0
2018-Apr-09 09:19N 01°17' E 103°59'0 0.0
2018-Apr-09 08:58N 01°17' E 103°59'0 0.0
2018-Apr-09 08:29N 01°17' E 103°59'0 0.0
2018-Apr-09 07:46N 01°17' E 103°59'0 0.0
2018-Apr-09 07:25N 01°17' E 103°59'0 0.0
2018-Apr-09 06:49N 01°17' E 103°59'0 0.0
2018-Apr-09 05:58N 01°17' E 103°59'0 0.1
2018-Apr-09 05:26N 01°17' E 103°59'  

Dump ship's entire track history